Terminal Aerodrome Forecast
Issued by NWS

Home | Current Version | Previous Version | Graphics & Text | Print | Product List | Glossary On
Versions: 1 2 3 4 5 6 7 8 9 10 11 12 13 14 15 16
000
FTUS43 KGRB 261532 AAB
TAFRHI
TAF AMD
KRHI 261532Z 2616/2712 30010G14KT P6SM BKN015 BKN030
      TEMPO 2616/2618 SCT020 BKN030
     FM261800 29008KT P6SM SCT035
     FM270200 VRB03KT P6SM BKN150
     FM271000 12003KT P6SM OVC090=

USA.gov is the U.S. government's official web portal to all federal, state and local government web resources and services.